Time;durP1;ratioP1;P1;durP2;ratioP2;P2;SDS_P1;SDS_P2;PMS_P1;PMS_P2;Temp;Humidity;BMP_temperature;BMP_pressure;BME280_temperature;BME280_humidity;BME280_pressure;Samples;Min_cycle;Max_cycle;Signal;HPM_P1;HPM_P2
2023/04/10 00:00:44;;;;;;;47.30;22.40;;;;;;;;;;5054684;28;20103;-65
2023/04/10 00:03:10;;;;;;;49.95;24.73;;;;;;;;;;5061695;28;20087;-64
2023/04/10 00:05:35;;;;;;;50.63;25.40;;;;;;;;;;5068544;28;20120;-68
2023/04/10 00:08:02;;;;;;;55.65;24.42;;;;;;;;;;5058479;28;20092;-67
2023/04/10 00:10:29;;;;;;;58.55;27.17;;;;;;;;;;5066553;28;20027;-66
2023/04/10 00:12:55;;;;;;;58.45;25.63;;;;;;;;;;5068050;28;20179;-67
2023/04/10 00:15:20;;;;;;;59.42;26.48;;;;;;;;;;5062568;28;20574;-64
2023/04/10 00:17:45;;;;;;;54.47;26.50;;;;;;;;;;5047615;28;20029;-66
2023/04/10 00:20:11;;;;;;;48.67;24.27;;;;;;;;;;5048384;28;20041;-65
2023/04/10 00:22:36;;;;;;;50.97;24.33;;;;;;;;;;5048269;28;20025;-66
2023/04/10 00:25:01;;;;;;;46.95;24.30;;;;;;;;;;5047872;28;20576;-67
2023/04/10 00:27:27;;;;;;;47.78;22.65;;;;;;;;;;5055459;28;20126;-66
2023/04/10 00:29:52;;;;;;;46.75;22.70;;;;;;;;;;5048496;28;20032;-66
2023/04/10 00:32:17;;;;;;;52.35;23.77;;;;;;;;;;5048167;28;20017;-67
2023/04/10 00:34:42;;;;;;;48.83;22.80;;;;;;;;;;5064275;28;20482;-65
2023/04/10 00:37:07;;;;;;;45.42;21.17;;;;;;;;;;5056312;28;20029;-66
2023/04/10 00:39:32;;;;;;;44.83;20.45;;;;;;;;;;5047813;28;20017;-66
2023/04/10 00:41:58;;;;;;;45.38;20.92;;;;;;;;;;5051720;28;20099;-64
2023/04/10 00:44:23;;;;;;;46.22;21.13;;;;;;;;;;5046531;28;20021;-68
2023/04/10 00:46:49;;;;;;;45.20;22.05;;;;;;;;;;5047436;28;20024;-66
2023/04/10 00:49:14;;;;;;;44.50;21.25;;;;;;;;;;5046943;28;20106;-67
2023/04/10 00:51:40;;;;;;;42.10;22.02;;;;;;;;;;5047959;28;20028;-66
2023/04/10 00:54:09;;;;;;;40.55;20.48;;;;;;;;;;5047546;28;20021;-66
2023/04/10 00:56:34;;;;;;;40.22;19.73;;;;;;;;;;5056738;28;20027;-67
2023/04/10 00:59:01;;;;;;;41.88;19.85;;;;;;;;;;5050927;28;20029;-68
2023/04/10 01:01:26;;;;;;;40.40;19.63;;;;;;;;;;5047435;28;20111;-66
2023/04/10 01:03:52;;;;;;;39.28;20.42;;;;;;;;;;5055779;28;20419;-65
2023/04/10 01:06:25;;;;;;;39.08;17.77;;;;;;;;;;5066447;28;20504;-63
2023/04/10 01:08:55;;;;;;;36.38;17.98;;;;;;;;;;5055890;28;20031;-66
2023/04/10 01:11:27;;;;;;;37.35;17.33;;;;;;;;;;5061451;28;20103;-64
2023/04/10 01:13:57;;;;;;;36.05;17.77;;;;;;;;;;5065407;28;20079;-66
2023/04/10 01:16:29;;;;;;;39.65;16.75;;;;;;;;;;5066914;28;20123;-65
2023/04/10 01:19:21;;;;;;;36.88;17.15;;;;;;;;;;5058420;28;20048;-65
2023/04/10 01:21:46;;;;;;;41.80;16.90;;;;;;;;;;5042096;28;20040;-65
2023/04/10 01:24:31;;;;;;;38.65;16.38;;;;;;;;;;5047226;28;20021;-68
2023/04/10 01:26:56;;;;;;;32.15;14.75;;;;;;;;;;5048667;28;20166;-67
2023/04/10 01:29:23;;;;;;;43.03;16.58;;;;;;;;;;5047489;28;20029;-66
2023/04/10 01:31:54;;;;;;;36.55;15.45;;;;;;;;;;5047649;28;20101;-66
2023/04/10 01:34:21;;;;;;;34.95;16.17;;;;;;;;;;5059812;28;20031;-67
2023/04/10 01:36:48;;;;;;;34.53;15.90;;;;;;;;;;5057179;28;20108;-67
2023/04/10 01:39:17;;;;;;;31.55;14.95;;;;;;;;;;5047017;28;20378;-69
2023/04/10 01:41:43;;;;;;;33.38;16.83;;;;;;;;;;5054779;28;20025;-66
2023/04/10 01:44:11;;;;;;;34.58;16.25;;;;;;;;;;5051746;28;20025;-67
2023/04/10 01:46:37;;;;;;;36.87;16.77;;;;;;;;;;5047513;28;20047;-68
2023/04/10 01:49:02;;;;;;;35.08;16.27;;;;;;;;;;5047167;28;20029;-64
2023/04/10 01:51:29;;;;;;;33.97;16.90;;;;;;;;;;5047384;28;20028;-64
2023/04/10 01:53:55;;;;;;;38.42;17.65;;;;;;;;;;5046983;28;20049;-67
2023/04/10 01:56:20;;;;;;;28.67;14.75;;;;;;;;;;5055102;28;20108;-65
2023/04/10 01:58:46;;;;;;;30.33;15.18;;;;;;;;;;5051418;28;20083;-67
2023/04/10 02:01:17;;;;;;;32.88;14.85;;;;;;;;;;5050981;28;20036;-67
2023/04/10 02:03:42;;;;;;;34.28;16.20;;;;;;;;;;5064680;28;20023;-64
2023/04/10 02:06:07;;;;;;;30.17;15.15;;;;;;;;;;5070531;28;20099;-67
2023/04/10 02:08:38;;;;;;;35.55;17.02;;;;;;;;;;5058285;28;20367;-65
2023/04/10 02:11:11;;;;;;;31.08;15.30;;;;;;;;;;5062762;28;20561;-65
2023/04/10 02:13:38;;;;;;;30.40;15.38;;;;;;;;;;5065821;28;20454;-67
2023/04/10 02:16:05;;;;;;;31.58;15.52;;;;;;;;;;5059711;28;20013;-63
2023/04/10 02:18:32;;;;;;;29.83;16.00;;;;;;;;;;5049293;28;20025;-63
2023/04/10 02:20:58;;;;;;;33.38;15.00;;;;;;;;;;5050524;28;20092;-66
2023/04/10 02:23:23;;;;;;;30.00;15.73;;;;;;;;;;5049934;28;20112;-63
2023/04/10 02:25:48;;;;;;;31.25;14.77;;;;;;;;;;5050940;28;20020;-66
2023/04/10 02:28:13;;;;;;;35.72;16.13;;;;;;;;;;5060573;28;20032;-67
2023/04/10 02:30:39;;;;;;;29.50;16.05;;;;;;;;;;5050729;28;20067;-68
2023/04/10 02:33:04;;;;;;;34.20;16.08;;;;;;;;;;5052265;28;20394;-67
2023/04/10 02:35:30;;;;;;;33.88;15.43;;;;;;;;;;5070548;28;20012;-66
2023/04/10 02:37:55;;;;;;;32.25;15.65;;;;;;;;;;5051328;28;20031;-66
2023/04/10 02:40:20;;;;;;;31.98;15.48;;;;;;;;;;5050543;28;20024;-66
2023/04/10 02:42:46;;;;;;;36.78;17.42;;;;;;;;;;5056195;28;20029;-66
2023/04/10 02:45:11;;;;;;;36.83;16.30;;;;;;;;;;5050362;28;20033;-66
2023/04/10 02:47:36;;;;;;;40.25;16.58;;;;;;;;;;5047296;28;20029;-67
2023/04/10 02:50:02;;;;;;;35.05;15.50;;;;;;;;;;5050569;28;20017;-62
2023/04/10 02:52:27;;;;;;;31.05;15.35;;;;;;;;;;5049980;28;20084;-65
2023/04/10 02:54:52;;;;;;;35.03;16.15;;;;;;;;;;5049943;28;20017;-67
2023/04/10 02:57:17;;;;;;;29.30;15.30;;;;;;;;;;5052100;28;20017;-66
2023/04/10 02:59:43;;;;;;;31.73;15.07;;;;;;;;;;5050735;28;20083;-65
2023/04/10 03:02:08;;;;;;;32.28;15.57;;;;;;;;;;5048891;28;20013;-63
2023/04/10 03:04:34;;;;;;;28.23;15.27;;;;;;;;;;5064466;28;20047;-67
2023/04/10 03:06:59;;;;;;;32.83;15.63;;;;;;;;;;5066803;28;20021;-65
2023/04/10 03:09:25;;;;;;;33.47;15.05;;;;;;;;;;5062198;28;20020;-67
2023/04/10 03:11:50;;;;;;;31.48;15.65;;;;;;;;;;5060783;28;20497;-67
2023/04/10 03:14:15;;;;;;;38.05;16.95;;;;;;;;;;5069496;28;20021;-66
2023/04/10 03:16:41;;;;;;;35.65;16.30;;;;;;;;;;5069125;28;20410;-64
2023/04/10 03:19:06;;;;;;;31.17;16.35;;;;;;;;;;5069531;28;20021;-68
2023/04/10 03:21:31;;;;;;;31.85;15.60;;;;;;;;;;5053081;28;20104;-66
2023/04/10 03:23:57;;;;;;;37.92;16.35;;;;;;;;;;5049316;28;20613;-66
2023/04/10 03:26:22;;;;;;;35.15;17.50;;;;;;;;;;5048601;28;20020;-66
2023/04/10 03:28:48;;;;;;;33.70;15.25;;;;;;;;;;5053781;28;20112;-64
2023/04/10 03:31:13;;;;;;;37.25;16.48;;;;;;;;;;5049470;28;20009;-67
2023/04/10 03:33:38;;;;;;;31.13;15.23;;;;;;;;;;5054499;28;20016;-64
2023/04/10 03:36:04;;;;;;;37.20;16.63;;;;;;;;;;5066957;28;20036;-67
2023/04/10 03:38:29;;;;;;;35.50;17.83;;;;;;;;;;5048313;28;20017;-66
2023/04/10 03:40:54;;;;;;;34.58;16.25;;;;;;;;;;5049623;28;20423;-67
2023/04/10 03:43:19;;;;;;;33.30;15.80;;;;;;;;;;5050368;28;20053;-64
2023/04/10 03:45:46;;;;;;;31.40;16.23;;;;;;;;;;5049199;28;20025;-66
2023/04/10 03:48:11;;;;;;;35.15;16.08;;;;;;;;;;5055633;28;20449;-66
2023/04/10 03:50:36;;;;;;;33.15;16.52;;;;;;;;;;5054336;28;20029;-65
2023/04/10 03:53:01;;;;;;;34.17;15.23;;;;;;;;;;5048475;28;20094;-67
2023/04/10 03:55:27;;;;;;;39.40;16.85;;;;;;;;;;5049101;28;20100;-64
2023/04/10 03:57:52;;;;;;;36.20;16.13;;;;;;;;;;5052293;28;20375;-67
2023/04/10 04:00:19;;;;;;;42.15;17.55;;;;;;;;;;5054637;28;20027;-66
2023/04/10 04:02:44;;;;;;;33.45;15.23;;;;;;;;;;5049122;28;20021;-67
2023/04/10 04:05:09;;;;;;;34.53;17.00;;;;;;;;;;5068414;28;20028;-66
2023/04/10 04:07:34;;;;;;;34.25;16.40;;;;;;;;;;5060635;28;20028;-66
2023/04/10 04:10:00;;;;;;;37.58;16.70;;;;;;;;;;5063829;28;20459;-67
2023/04/10 04:12:26;;;;;;;34.83;16.85;;;;;;;;;;5062669;28;20214;-64
2023/04/10 04:14:51;;;;;;;35.85;17.25;;;;;;;;;;5066856;28;20028;-67
2023/04/10 04:17:16;;;;;;;33.60;15.55;;;;;;;;;;5048281;28;20013;-64
2023/04/10 04:19:41;;;;;;;36.40;16.10;;;;;;;;;;5049224;28;20017;-66
2023/04/10 04:22:06;;;;;;;37.92;17.15;;;;;;;;;;5048347;28;20591;-67
2023/04/10 04:24:32;;;;;;;32.60;16.25;;;;;;;;;;5046905;28;20021;-67
2023/04/10 04:26:57;;;;;;;34.30;16.83;;;;;;;;;;5048110;28;20017;-66
2023/04/10 04:29:22;;;;;;;34.83;16.50;;;;;;;;;;5061160;28;20032;-67
2023/04/10 04:31:47;;;;;;;35.25;16.10;;;;;;;;;;5048677;28;20559;-67
2023/04/10 04:34:13;;;;;;;35.83;16.10;;;;;;;;;;5063871;28;20012;-67
2023/04/10 04:36:38;;;;;;;34.53;16.42;;;;;;;;;;5059797;28;20033;-66
2023/04/10 04:39:03;;;;;;;42.10;17.38;;;;;;;;;;5048502;28;20025;-63
2023/04/10 04:41:32;;;;;;;33.85;15.77;;;;;;;;;;5048809;28;20017;-66
2023/04/10 04:43:57;;;;;;;37.63;16.83;;;;;;;;;;5056376;28;20032;-63
2023/04/10 04:46:23;;;;;;;34.88;15.77;;;;;;;;;;5047706;28;20125;-66
2023/04/10 04:48:48;;;;;;;34.65;16.52;;;;;;;;;;5047860;28;20112;-67
2023/04/10 04:51:13;;;;;;;35.13;17.50;;;;;;;;;;5048379;28;20025;-63
2023/04/10 04:53:38;;;;;;;34.80;16.70;;;;;;;;;;5048088;28;20140;-67
2023/04/10 04:56:07;;;;;;;41.67;16.50;;;;;;;;;;5048480;28;20040;-65
2023/04/10 04:58:32;;;;;;;42.38;18.15;;;;;;;;;;5051313;28;20020;-67
2023/04/10 05:00:57;;;;;;;34.00;15.93;;;;;;;;;;5048748;28;20020;-65
2023/04/10 05:03:22;;;;;;;35.30;16.00;;;;;;;;;;5052709;28;20070;-66
2023/04/10 05:05:47;;;;;;;34.95;16.80;;;;;;;;;;5066557;28;20421;-68
2023/04/10 05:08:13;;;;;;;36.45;15.77;;;;;;;;;;5053353;28;20620;-64
2023/04/10 05:10:38;;;;;;;34.05;16.02;;;;;;;;;;5058014;28;20044;-66
2023/04/10 05:13:03;;;;;;;38.65;16.95;;;;;;;;;;5066221;28;20028;-64
2023/04/10 05:15:28;;;;;;;36.67;16.25;;;;;;;;;;5048250;28;20021;-67
2023/04/10 05:17:54;;;;;;;36.75;16.55;;;;;;;;;;5047120;28;20048;-65
2023/04/10 05:20:20;;;;;;;31.63;16.33;;;;;;;;;;5048246;28;20028;-66
2023/04/10 05:22:45;;;;;;;34.75;15.68;;;;;;;;;;5047827;28;20024;-65
2023/04/10 05:25:11;;;;;;;32.72;15.98;;;;;;;;;;5047653;28;20025;-66
2023/04/10 05:27:36;;;;;;;37.58;16.27;;;;;;;;;;5047094;28;20545;-66
2023/04/10 05:30:02;;;;;;;32.38;16.70;;;;;;;;;;5057561;28;20032;-66
2023/04/10 05:32:28;;;;;;;37.95;15.98;;;;;;;;;;5051509;28;20036;-66
2023/04/10 05:34:53;;;;;;;34.58;16.33;;;;;;;;;;5069007;28;20061;-63
2023/04/10 05:37:18;;;;;;;30.50;15.95;;;;;;;;;;5057295;28;20459;-67
2023/04/10 05:39:43;;;;;;;33.90;16.05;;;;;;;;;;5051931;28;20497;-66
2023/04/10 05:42:08;;;;;;;37.10;15.57;;;;;;;;;;5052052;28;20028;-68
2023/04/10 05:44:34;;;;;;;33.30;14.77;;;;;;;;;;5057361;28;20035;-66
2023/04/10 05:46:59;;;;;;;29.77;14.52;;;;;;;;;;5051126;28;20025;-66
2023/04/10 05:49:24;;;;;;;28.55;14.43;;;;;;;;;;5051512;28;20025;-63
2023/04/10 05:51:50;;;;;;;31.75;14.80;;;;;;;;;;5051470;28;20051;-67
2023/04/10 05:54:16;;;;;;;30.90;16.08;;;;;;;;;;5070655;28;20017;-67
2023/04/10 05:56:41;;;;;;;33.10;15.02;;;;;;;;;;5067299;28;20161;-64
2023/04/10 05:59:06;;;;;;;34.78;16.33;;;;;;;;;;5054146;28;20037;-66
2023/04/10 06:01:31;;;;;;;27.95;14.73;;;;;;;;;;5083652;28;20020;-65
2023/04/10 06:03:57;;;;;;;33.35;14.45;;;;;;;;;;5064667;28;20174;-67
2023/04/10 06:06:24;;;;;;;30.20;15.07;;;;;;;;;;5070143;28;20039;-65
2023/04/10 06:08:49;;;;;;;30.17;14.90;;;;;;;;;;5068136;28;20343;-68
2023/04/10 06:11:15;;;;;;;34.58;14.93;;;;;;;;;;5054647;28;20029;-69
2023/04/10 06:13:40;;;;;;;30.10;15.25;;;;;;;;;;5052402;28;20447;-63
2023/04/10 06:16:06;;;;;;;28.33;15.15;;;;;;;;;;5074364;28;20035;-67
2023/04/10 06:18:31;;;;;;;33.13;15.93;;;;;;;;;;5057338;28;20014;-69
2023/04/10 06:20:59;;;;;;;37.35;14.93;;;;;;;;;;5067286;28;20022;-68
2023/04/10 06:23:24;;;;;;;32.88;15.18;;;;;;;;;;5062482;28;20024;-67
2023/04/10 06:25:49;;;;;;;32.03;14.98;;;;;;;;;;5065648;28;20016;-65
2023/04/10 06:28:14;;;;;;;32.10;15.82;;;;;;;;;;5066957;28;20025;-66
2023/04/10 06:30:40;;;;;;;37.67;15.73;;;;;;;;;;5062231;28;20024;-67
2023/04/10 06:33:05;;;;;;;34.40;16.10;;;;;;;;;;5056975;28;21388;-68
2023/04/10 06:35:30;;;;;;;31.40;15.93;;;;;;;;;;5073857;28;20057;-64
2023/04/10 06:37:55;;;;;;;31.33;15.85;;;;;;;;;;5067229;28;20314;-67
2023/04/10 06:40:21;;;;;;;37.65;15.73;;;;;;;;;;5070075;28;20032;-68
2023/04/10 06:42:46;;;;;;;40.63;15.30;;;;;;;;;;5059146;28;20033;-70
2023/04/10 06:45:11;;;;;;;35.63;17.10;;;;;;;;;;5063226;28;20017;-67
2023/04/10 06:47:36;;;;;;;34.17;15.93;;;;;;;;;;5064821;28;20485;-69
2023/04/10 06:50:02;;;;;;;33.70;16.70;;;;;;;;;;5076019;28;20016;-65
2023/04/10 06:52:27;;;;;;;35.97;15.35;;;;;;;;;;5071339;28;20112;-67
2023/04/10 06:54:52;;;;;;;29.00;15.23;;;;;;;;;;5065132;28;20032;-66
2023/04/10 06:57:18;;;;;;;31.55;15.38;;;;;;;;;;5066222;28;20020;-69
2023/04/10 06:59:43;;;;;;;30.00;15.65;;;;;;;;;;5063686;28;20381;-66
2023/04/10 07:02:09;;;;;;;34.83;15.93;;;;;;;;;;5061008;28;20012;-66
2023/04/10 07:04:34;;;;;;;31.73;15.32;;;;;;;;;;5063915;28;20057;-66
2023/04/10 07:06:59;;;;;;;27.13;15.40;;;;;;;;;;5065146;28;20360;-69
2023/04/10 07:09:25;;;;;;;34.47;15.63;;;;;;;;;;5062123;28;20067;-68
2023/04/10 07:11:50;;;;;;;32.70;15.90;;;;;;;;;;5066519;28;20072;-67
2023/04/10 07:14:16;;;;;;;29.92;15.48;;;;;;;;;;5067178;28;20038;-66
2023/04/10 07:16:41;;;;;;;32.15;16.15;;;;;;;;;;5063169;28;20024;-68
2023/04/10 07:19:06;;;;;;;32.63;16.13;;;;;;;;;;5066701;28;20021;-70
2023/04/10 07:21:31;;;;;;;33.72;15.95;;;;;;;;;;5065712;28;20031;-69
2023/04/10 07:23:57;;;;;;;29.55;15.55;;;;;;;;;;5067428;28;20351;-68
2023/04/10 07:26:22;;;;;;;32.20;15.45;;;;;;;;;;5058657;28;20021;-65
2023/04/10 07:28:47;;;;;;;30.05;14.68;;;;;;;;;;5066517;28;20096;-68
2023/04/10 07:31:13;;;;;;;36.25;15.20;;;;;;;;;;5061477;28;20093;-69
2023/04/10 07:33:38;;;;;;;27.75;15.52;;;;;;;;;;5066242;28;20086;-71
2023/04/10 07:36:04;;;;;;;31.00;14.75;;;;;;;;;;5071456;28;20343;-68
2023/04/10 07:38:30;;;;;;;30.95;15.55;;;;;;;;;;5055646;28;20432;-67
2023/04/10 07:40:56;;;;;;;28.00;14.95;;;;;;;;;;5072925;28;20028;-67
2023/04/10 07:43:21;;;;;;;28.90;16.02;;;;;;;;;;5072387;28;20027;-68
2023/04/10 07:45:46;;;;;;;33.22;16.27;;;;;;;;;;5073453;28;20107;-66
2023/04/10 07:48:11;;;;;;;30.77;15.70;;;;;;;;;;5071573;28;20032;-67
2023/04/10 07:50:37;;;;;;;32.00;15.45;;;;;;;;;;5067639;28;20009;-67
2023/04/10 07:53:06;;;;;;;35.50;17.55;;;;;;;;;;5068317;28;20148;-68
2023/04/10 07:55:31;;;;;;;30.95;15.88;;;;;;;;;;5063980;28;20502;-69
2023/04/10 07:57:56;;;;;;;27.38;14.70;;;;;;;;;;5079904;28;20059;-66
2023/04/10 08:00:22;;;;;;;28.42;14.13;;;;;;;;;;5062593;28;20024;-67
2023/04/10 08:02:47;;;;;;;29.63;14.10;;;;;;;;;;5066881;28;20390;-67
2023/04/10 08:05:12;;;;;;;32.65;17.00;;;;;;;;;;5076831;28;20106;-68
2023/04/10 08:07:37;;;;;;;29.88;15.05;;;;;;;;;;5056890;28;20159;-71
2023/04/10 08:10:03;;;;;;;26.27;13.75;;;;;;;;;;5064553;28;20048;-68
2023/04/10 08:12:28;;;;;;;29.23;14.57;;;;;;;;;;5080316;28;20035;-67
2023/04/10 08:14:53;;;;;;;28.65;15.18;;;;;;;;;;5073889;28;20021;-68
2023/04/10 08:17:18;;;;;;;31.25;13.90;;;;;;;;;;5066295;28;20560;-66
2023/04/10 08:19:44;;;;;;;28.27;14.20;;;;;;;;;;5061307;28;20013;-67
2023/04/10 08:22:09;;;;;;;30.13;15.32;;;;;;;;;;5070025;28;20029;-67
2023/04/10 08:24:34;;;;;;;29.25;14.40;;;;;;;;;;5069071;28;20012;-65
2023/04/10 08:26:59;;;;;;;27.08;14.50;;;;;;;;;;5074953;28;20027;-72
2023/04/10 08:29:25;;;;;;;27.77;14.55;;;;;;;;;;5079199;28;20015;-65
2023/04/10 08:31:50;;;;;;;25.33;13.68;;;;;;;;;;5066363;28;20546;-66
2023/04/10 08:34:15;;;;;;;31.00;14.45;;;;;;;;;;5067684;28;20104;-69
2023/04/10 08:36:40;;;;;;;28.13;13.25;;;;;;;;;;5072327;28;20603;-67
2023/04/10 08:39:06;;;;;;;28.77;15.38;;;;;;;;;;5069153;28;20060;-73
2023/04/10 08:41:31;;;;;;;26.77;12.45;;;;;;;;;;5049369;28;20024;-74
2023/04/10 08:43:57;;;;;;;22.55;12.68;;;;;;;;;;5064606;28;20024;-75
2023/04/10 08:46:24;;;;;;;27.45;13.75;;;;;;;;;;5058065;28;20028;-69
2023/04/10 08:48:54;;;;;;;25.50;13.15;;;;;;;;;;5055101;28;20448;-71
2023/04/10 08:51:20;;;;;;;29.77;14.85;;;;;;;;;;5067289;28;20020;-72
2023/04/10 08:53:47;;;;;;;31.02;14.13;;;;;;;;;;5053621;28;20016;-69
2023/04/10 08:56:14;;;;;;;25.55;13.18;;;;;;;;;;5066088;28;20476;-66
2023/04/10 08:58:40;;;;;;;27.15;13.13;;;;;;;;;;5057059;28;20024;-67
2023/04/10 09:01:06;;;;;;;28.27;14.77;;;;;;;;;;5057317;28;20386;-72
2023/04/10 09:03:31;;;;;;;30.58;14.20;;;;;;;;;;5053085;28;20033;-69
2023/04/10 09:05:57;;;;;;;26.35;13.40;;;;;;;;;;5068373;28;20120;-71
2023/04/10 09:08:22;;;;;;;26.90;13.32;;;;;;;;;;5070708;28;20017;-70
2023/04/10 09:10:48;;;;;;;24.88;14.00;;;;;;;;;;5062688;28;20021;-72
2023/04/10 09:13:13;;;;;;;31.30;14.18;;;;;;;;;;5065979;28;20070;-69
2023/04/10 09:15:57;;;;;;;23.38;12.75;;;;;;;;;;5070388;28;20529;-67
2023/04/10 09:18:39;;;;;;;26.38;13.90;;;;;;;;;;5072040;28;20075;-67
2023/04/10 09:21:07;;;;;;;28.27;13.32;;;;;;;;;;5074198;28;20036;-66
2023/04/10 09:23:33;;;;;;;26.50;13.68;;;;;;;;;;5076657;28;20393;-69
2023/04/10 09:25:58;;;;;;;22.20;12.13;;;;;;;;;;5075081;28;20115;-68
2023/04/10 09:28:23;;;;;;;26.38;12.73;;;;;;;;;;5072123;28;20119;-68
2023/04/10 09:30:48;;;;;;;22.02;12.10;;;;;;;;;;5070639;28;20186;-71
2023/04/10 09:33:20;;;;;;;21.85;12.38;;;;;;;;;;5063700;28;20032;-68
2023/04/10 09:35:45;;;;;;;18.48;10.57;;;;;;;;;;5068566;28;20475;-67
2023/04/10 09:38:17;;;;;;;19.90;10.93;;;;;;;;;;5075947;28;20043;-65
2023/04/10 09:40:43;;;;;;;19.60;10.93;;;;;;;;;;5063635;28;20016;-66
2023/04/10 09:43:22;;;;;;;22.55;12.02;;;;;;;;;;5068648;28;20032;-67
2023/04/10 09:45:51;;;;;;;21.75;11.30;;;;;;;;;;5076723;28;20024;-67
2023/04/10 09:48:17;;;;;;;20.77;11.05;;;;;;;;;;5047079;28;20112;-67
2023/04/10 09:50:42;;;;;;;21.40;11.48;;;;;;;;;;5058984;28;20137;-65
2023/04/10 09:53:08;;;;;;;22.73;11.68;;;;;;;;;;5066266;28;20713;-66
2023/04/10 09:55:35;;;;;;;20.23;10.63;;;;;;;;;;5070664;28;20020;-70
2023/04/10 09:58:00;;;;;;;19.95;10.52;;;;;;;;;;5071127;28;20029;-68
2023/04/10 10:00:26;;;;;;;20.65;9.63;;;;;;;;;;5064171;28;20109;-69
2023/04/10 10:02:51;;;;;;;18.80;10.40;;;;;;;;;;5065708;28;20043;-66
2023/04/10 10:05:17;;;;;;;18.52;9.25;;;;;;;;;;5053867;28;20610;-67
2023/04/10 10:07:43;;;;;;;19.27;9.57;;;;;;;;;;5053354;28;20029;-65
2023/04/10 10:10:10;;;;;;;20.30;9.95;;;;;;;;;;5064293;28;20447;-69
2023/04/10 10:12:42;;;;;;;19.90;9.68;;;;;;;;;;5078449;28;20075;-68
2023/04/10 10:15:15;;;;;;;20.73;9.57;;;;;;;;;;5070006;28;20083;-67
2023/04/10 10:17:50;;;;;;;15.20;7.97;;;;;;;;;;5060254;28;20049;-68
2023/04/10 10:20:16;;;;;;;16.73;8.00;;;;;;;;;;5053429;28;20044;-66
2023/04/10 10:22:42;;;;;;;14.88;9.05;;;;;;;;;;5063681;28;20017;-69
2023/04/10 10:25:07;;;;;;;19.15;8.93;;;;;;;;;;5050653;28;20103;-69
2023/04/10 10:27:35;;;;;;;16.88;8.30;;;;;;;;;;5054736;28;20032;-68
2023/04/10 10:30:02;;;;;;;18.52;9.23;;;;;;;;;;5070009;28;20024;-69
2023/04/10 10:32:28;;;;;;;16.33;8.40;;;;;;;;;;5071705;28;20021;-66
2023/04/10 10:34:53;;;;;;;19.42;9.02;;;;;;;;;;5056801;28;20467;-68
2023/04/10 10:37:21;;;;;;;20.40;8.90;;;;;;;;;;5054827;28;20025;-67
2023/04/10 10:39:53;;;;;;;16.83;9.38;;;;;;;;;;5050628;28;20035;-67
2023/04/10 10:42:36;;;;;;;16.38;9.30;;;;;;;;;;5080351;28;20092;-67
2023/04/10 10:45:15;;;;;;;17.83;8.23;;;;;;;;;;5066289;28;20025;-66
2023/04/10 10:47:43;;;;;;;18.23;8.63;;;;;;;;;;5049957;28;20060;-67
2023/04/10 10:50:08;;;;;;;15.95;8.23;;;;;;;;;;5063045;28;20012;-67
2023/04/10 10:52:46;;;;;;;11.95;6.80;;;;;;;;;;5072409;28;20021;-69
2023/04/10 10:55:20;;;;;;;13.68;8.00;;;;;;;;;;5056608;28;20091;-66
2023/04/10 10:57:46;;;;;;;14.43;7.40;;;;;;;;;;5061975;28;20035;-67
2023/04/10 11:00:12;;;;;;;16.42;7.57;;;;;;;;;;5050711;28;20470;-67
2023/04/10 11:02:37;;;;;;;15.18;7.95;;;;;;;;;;5069765;28;20057;-67
2023/04/10 11:05:02;;;;;;;15.65;8.75;;;;;;;;;;5050144;28;20021;-65
2023/04/10 11:07:47;;;;;;;15.52;8.35;;;;;;;;;;5056228;28;20029;-69
2023/04/10 11:10:13;;;;;;;16.23;8.57;;;;;;;;;;5055316;28;20087;-68
2023/04/10 11:12:58;;;;;;;16.88;8.50;;;;;;;;;;5064610;28;20024;-66
2023/04/10 11:15:24;;;;;;;15.25;7.97;;;;;;;;;;5050683;28;20040;-67
2023/04/10 11:17:50;;;;;;;16.73;7.80;;;;;;;;;;5048618;28;20052;-66
2023/04/10 11:20:25;;;;;;;13.55;7.15;;;;;;;;;;5050022;28;20021;-68
2023/04/10 11:23:11;;;;;;;15.65;8.63;;;;;;;;;;5067032;28;20383;-65
2023/04/10 11:25:45;;;;;;;14.95;8.00;;;;;;;;;;5061178;28;20029;-67
2023/04/10 11:28:30;;;;;;;13.60;7.78;;;;;;;;;;5070808;28;20061;-68
2023/04/10 11:30:56;;;;;;;13.20;7.30;;;;;;;;;;5071004;28;20103;-67
2023/04/10 11:33:21;;;;;;;17.77;8.30;;;;;;;;;;5064667;28;20104;-68
2023/04/10 11:35:46;;;;;;;15.52;9.02;;;;;;;;;;5047894;28;20055;-67
2023/04/10 11:38:13;;;;;;;19.67;7.93;;;;;;;;;;5049054;28;20155;-67
2023/04/10 11:40:54;;;;;;;13.60;7.15;;;;;;;;;;5049261;28;20024;-65
2023/04/10 11:43:19;;;;;;;14.48;7.63;;;;;;;;;;5067240;28;20028;-67
2023/04/10 11:45:45;;;;;;;20.95;9.93;;;;;;;;;;5069526;28;20040;-68
2023/04/10 11:48:10;;;;;;;16.38;7.95;;;;;;;;;;5048625;28;20382;-68
2023/04/10 11:50:36;;;;;;;16.40;7.88;;;;;;;;;;5061195;28;20012;-65
2023/04/10 11:53:01;;;;;;;15.50;7.47;;;;;;;;;;5068307;28;20028;-68
2023/04/10 11:55:37;;;;;;;14.70;7.35;;;;;;;;;;5056909;28;20043;-66
2023/04/10 11:58:02;;;;;;;13.75;7.72;;;;;;;;;;5047838;28;20383;-66
2023/04/10 12:00:27;;;;;;;17.35;8.27;;;;;;;;;;5057489;28;20025;-64
2023/04/10 12:02:52;;;;;;;15.73;8.00;;;;;;;;;;5061389;28;20077;-69
2023/04/10 12:05:18;;;;;;;16.75;9.07;;;;;;;;;;5048867;28;20250;-66
2023/04/10 12:07:43;;;;;;;15.98;8.18;;;;;;;;;;5048491;28;20017;-67
2023/04/10 12:10:08;;;;;;;12.20;6.63;;;;;;;;;;5069181;28;20051;-68
2023/04/10 12:12:34;;;;;;;15.35;7.85;;;;;;;;;;5069418;28;20452;-67
2023/04/10 12:15:00;;;;;;;16.95;7.50;;;;;;;;;;5067487;28;20080;-66
2023/04/10 12:17:28;;;;;;;11.82;6.78;;;;;;;;;;5058662;28;20013;-70
2023/04/10 12:19:57;;;;;;;14.77;7.47;;;;;;;;;;5068899;28;20032;-69
2023/04/10 12:22:22;;;;;;;13.57;6.93;;;;;;;;;;5068794;28;20071;-68
2023/04/10 12:24:49;;;;;;;13.10;7.22;;;;;;;;;;5071175;28;20040;-65
2023/04/10 12:27:15;;;;;;;13.35;7.35;;;;;;;;;;5050567;28;20033;-69
2023/04/10 12:29:40;;;;;;;12.18;7.03;;;;;;;;;;5069153;28;20024;-66
2023/04/10 12:32:08;;;;;;;17.90;7.45;;;;;;;;;;5077255;28;20035;-68
2023/04/10 12:34:34;;;;;;;15.85;8.00;;;;;;;;;;5054910;28;20044;-69
2023/04/10 12:36:59;;;;;;;13.52;7.47;;;;;;;;;;5075555;28;20417;-66
2023/04/10 12:39:25;;;;;;;13.60;7.28;;;;;;;;;;5063009;28;20048;-66
2023/04/10 12:41:51;;;;;;;12.82;6.97;;;;;;;;;;5059065;28;20024;-68
2023/04/10 12:44:18;;;;;;;14.10;7.00;;;;;;;;;;5063025;28;20401;-65
2023/04/10 12:46:44;;;;;;;11.65;6.97;;;;;;;;;;5070406;28;20032;-67
2023/04/10 12:49:10;;;;;;;12.60;6.00;;;;;;;;;;5066965;28;20402;-66
2023/04/10 12:51:42;;;;;;;16.45;7.68;;;;;;;;;;5073734;28;20024;-70
2023/04/10 12:54:07;;;;;;;10.63;6.05;;;;;;;;;;5060084;28;20025;-66
2023/04/10 12:56:40;;;;;;;12.15;6.68;;;;;;;;;;5065821;28;20424;-70
2023/04/10 12:59:05;;;;;;;13.80;6.75;;;;;;;;;;5058465;28;20107;-68
2023/04/10 13:01:31;;;;;;;12.02;6.60;;;;;;;;;;5060693;28;20540;-65
2023/04/10 13:03:57;;;;;;;16.23;7.00;;;;;;;;;;5057839;28;20056;-66
2023/04/10 13:06:22;;;;;;;10.50;5.63;;;;;;;;;;5056614;28;20087;-65
2023/04/10 13:08:47;;;;;;;10.88;6.55;;;;;;;;;;5067273;28;20024;-66
2023/04/10 13:11:12;;;;;;;13.00;5.97;;;;;;;;;;5062327;28;20092;-64
2023/04/10 13:13:38;;;;;;;12.25;6.35;;;;;;;;;;5048061;28;20028;-67
2023/04/10 13:16:03;;;;;;;9.63;5.43;;;;;;;;;;5048324;28;20021;-69
2023/04/10 13:18:28;;;;;;;11.80;5.55;;;;;;;;;;5070456;28;20268;-66
2023/04/10 13:20:53;;;;;;;13.00;5.53;;;;;;;;;;5067188;28;20028;-66
2023/04/10 13:23:19;;;;;;;9.68;5.55;;;;;;;;;;5047947;28;20024;-68
2023/04/10 13:25:44;;;;;;;10.13;6.15;;;;;;;;;;5047809;28;20145;-69
2023/04/10 13:28:12;;;;;;;10.70;5.10;;;;;;;;;;5065734;28;20400;-65
2023/04/10 13:30:39;;;;;;;11.70;5.93;;;;;;;;;;5053268;28;20095;-65
2023/04/10 13:33:04;;;;;;;10.52;5.50;;;;;;;;;;5065980;28;20159;-68
2023/04/10 13:35:30;;;;;;;10.05;5.07;;;;;;;;;;5066121;28;20617;-66
2023/04/10 13:37:55;;;;;;;11.48;4.75;;;;;;;;;;5062816;28;20177;-67
2023/04/10 13:40:20;;;;;;;12.10;4.50;;;;;;;;;;5066641;28;20032;-66
2023/04/10 13:42:46;;;;;;;8.10;4.43;;;;;;;;;;5057714;28;20044;-68
2023/04/10 13:45:11;;;;;;;11.25;5.88;;;;;;;;;;5061063;28;20016;-71
2023/04/10 13:47:36;;;;;;;10.30;4.57;;;;;;;;;;5088064;22;20521;-71
2023/04/10 13:50:02;;;;;;;9.27;4.67;;;;;;;;;;5067204;28;20035;-71
2023/04/10 13:52:27;;;;;;;8.60;4.53;;;;;;;;;;5068520;28;20249;-71
2023/04/10 13:54:52;;;;;;;15.70;4.20;;;;;;;;;;5069636;28;20017;-72
2023/04/10 13:57:17;;;;;;;8.60;4.30;;;;;;;;;;5060607;28;20052;-72
2023/04/10 13:59:43;;;;;;;7.43;4.15;;;;;;;;;;5056968;28;20040;-72
2023/04/10 14:02:08;;;;;;;7.88;4.22;;;;;;;;;;5061906;28;20478;-72
2023/04/10 14:04:33;;;;;;;7.75;4.15;;;;;;;;;;5053237;28;20035;-71
2023/04/10 14:07:00;;;;;;;7.53;3.85;;;;;;;;;;5071453;28;20031;-72
2023/04/10 14:09:26;;;;;;;10.75;4.20;;;;;;;;;;5068717;28;20467;-71
2023/04/10 14:11:51;;;;;;;7.63;3.67;;;;;;;;;;5060429;28;20021;-71
2023/04/10 14:14:16;;;;;;;7.05;3.70;;;;;;;;;;5064802;28;20029;-72
2023/04/10 14:16:41;;;;;;;12.35;6.25;;;;;;;;;;5062303;28;20478;-71